San Jose/Bolanos, Costa Rica

9:08 AM CST on February 26, 2017 (GMT -0600)
Carretera John F Kennedy | | Change Station

Elev 3395 ft 9.93 °N, 84.15 °W | Updated 7 minutes ago

Clear
Clear
76.8 °F
Feels Like 79 °F
N
1.9
Wind Variable Wind from South
Gusts 6.2 mph

Today
High -- | Low -- °F
--% Chance of Precip.
Yesterday
High -- | Low -- °F
Precip. -- in
Pressure 30.07 in
Visibility -9999.0 miles
Clouds
Heat Index 79 °F
Dew Point 62 °F
Humidity 60%
Rainfall 0.00 in
Snow Depth Not available.
5:52 AM 5:46 PM
New Moon, 0% visible
METAR MROC 261500Z 11012KT CAVOK 27/16 A3007 NOSIG
Pressure 30.07 in
Visibility -9999.0 miles
Clouds
Heat Index 79 °F
Dew Point 62 °F
Humidity 60%
Rainfall 0.00 in
Snow Depth Not available.
5:52 AM 5:46 PM
New Moon, 0% visible
METAR MROC 261500Z 11012KT CAVOK 27/16 A3007 NOSIG

Get Your Daily Forecast Email!

Thanks for signing up!

Be on the lookout for a verification email in your inbox.

You'll start receiving the daily forecast at 8 AM.

×

10-Day Weather Forecast

No radar image for this location.
×

Almanac

Astronomy

Feb. 26, 2017 Rise Set
Actual Time
Civil Twilight
Nautical Twilight
Astronomical Twilight
Moon
Length of Visible Light
Length of Day
Tomorrow will be .
, % of the Moon is Illuminated

Today's Extremes

Country Highs Country Lows

Community

WunderPhotos

Upload Photos

1,962,540 photos uploaded!

WunderBlog® & News

Nearby

Air Quality

  Air Quality AQ Index Pollutant
Not available.

Snow Depth

Station Depth Elevation

Earthquake Activity

City Distance Mag. Time & Date
Minimum magnitude displayed is 2.5.

Coastal Water Temperatures

Place Temperature

Stations

Nearby Weather Stations

Station Location Temp. Windchill Dew Point Humidity Wind Precip. Elev Updated Type